Terminal Aerodrome Forecast
Issued by NWS Cleveland, OH

Home | Current Version | Previous Version | Graphics & Text | Print | Product List | Glossary On
Versions: 1 2 3 4 5 6 7 8 9 10 11 12 13 14 15 16 17
865
FTUS41 KCLE 202249 AAA
TAFERI
TAF AMD
KERI 202249Z 2023/2118 VRB04KT P6SM OVC040
      TEMPO 2102/2106 5SM -SHRA OVC015
     FM210700 32004KT 5SM BR OVC009
     FM211400 30008KT P6SM BKN035=

USA.gov is the U.S. government's official web portal to all federal, state and local government web resources and services.